sensor_id;sensor_type;location;lat;lon;timestamp;P1;durP1;ratioP1;P2;durP2;ratioP2
49412;SDS011;35493;50.276;9.372;2023-03-01T00:00:02;7.57;;;4.00;;
49412;SDS011;35493;50.276;9.372;2023-03-01T00:02:36;10.32;;;4.25;;
49412;SDS011;35493;50.276;9.372;2023-03-01T00:05:04;8.02;;;3.90;;
49412;SDS011;35493;50.276;9.372;2023-03-01T00:07:34;10.30;;;4.28;;
49412;SDS011;35493;50.276;9.372;2023-03-01T00:10:02;8.05;;;4.43;;
49412;SDS011;35493;50.276;9.372;2023-03-01T00:12:36;9.55;;;4.55;;
49412;SDS011;35493;50.276;9.372;2023-03-01T00:15:03;10.05;;;4.50;;
49412;SDS011;35493;50.276;9.372;2023-03-01T00:17:31;9.50;;;4.97;;
49412;SDS011;35493;50.276;9.372;2023-03-01T00:19:58;9.05;;;4.90;;
49412;SDS011;35493;50.276;9.372;2023-03-01T00:22:26;10.50;;;5.13;;
49412;SDS011;35493;50.276;9.372;2023-03-01T00:24:54;11.27;;;5.32;;
49412;SDS011;35493;50.276;9.372;2023-03-01T00:27:22;10.77;;;4.78;;
49412;SDS011;35493;50.276;9.372;2023-03-01T00:29:49;12.48;;;5.07;;
49412;SDS011;35493;50.276;9.372;2023-03-01T00:32:16;9.35;;;5.07;;
49412;SDS011;35493;50.276;9.372;2023-03-01T00:34:43;9.70;;;5.20;;
49412;SDS011;35493;50.276;9.372;2023-03-01T00:37:19;10.55;;;5.35;;
49412;SDS011;35493;50.276;9.372;2023-03-01T00:39:46;9.73;;;5.03;;
49412;SDS011;35493;50.276;9.372;2023-03-01T00:42:14;11.38;;;5.35;;
49412;SDS011;35493;50.276;9.372;2023-03-01T00:44:43;9.38;;;4.97;;
49412;SDS011;35493;50.276;9.372;2023-03-01T00:47:10;11.75;;;5.47;;
49412;SDS011;35493;50.276;9.372;2023-03-01T00:49:37;9.63;;;4.47;;
49412;SDS011;35493;50.276;9.372;2023-03-01T00:52:04;9.82;;;4.47;;
49412;SDS011;35493;50.276;9.372;2023-03-01T00:54:31;10.05;;;4.53;;
49412;SDS011;35493;50.276;9.372;2023-03-01T00:56:58;10.65;;;4.50;;
49412;SDS011;35493;50.276;9.372;2023-03-01T00:59:25;8.68;;;4.07;;
49412;SDS011;35493;50.276;9.372;2023-03-01T01:01:53;12.65;;;4.85;;
49412;SDS011;35493;50.276;9.372;2023-03-01T01:04:21;8.32;;;4.35;;
49412;SDS011;35493;50.276;9.372;2023-03-01T01:06:48;10.85;;;4.90;;
49412;SDS011;35493;50.276;9.372;2023-03-01T01:09:15;8.70;;;4.25;;
49412;SDS011;35493;50.276;9.372;2023-03-01T01:11:43;9.13;;;4.97;;
49412;SDS011;35493;50.276;9.372;2023-03-01T01:14:12;9.32;;;4.32;;
49412;SDS011;35493;50.276;9.372;2023-03-01T01:16:39;8.60;;;4.70;;
49412;SDS011;35493;50.276;9.372;2023-03-01T01:19:08;8.82;;;4.68;;
49412;SDS011;35493;50.276;9.372;2023-03-01T01:21:36;11.18;;;4.85;;
49412;SDS011;35493;50.276;9.372;2023-03-01T01:24:03;8.60;;;5.03;;
49412;SDS011;35493;50.276;9.372;2023-03-01T01:26:32;13.90;;;5.47;;
49412;SDS011;35493;50.276;9.372;2023-03-01T01:29:00;8.77;;;4.63;;
49412;SDS011;35493;50.276;9.372;2023-03-01T01:31:28;8.27;;;4.70;;
49412;SDS011;35493;50.276;9.372;2023-03-01T01:33:56;8.95;;;4.13;;
49412;SDS011;35493;50.276;9.372;2023-03-01T01:36:25;9.98;;;5.22;;
49412;SDS011;35493;50.276;9.372;2023-03-01T01:38:53;11.98;;;5.57;;
49412;SDS011;35493;50.276;9.372;2023-03-01T01:41:20;11.25;;;4.97;;
49412;SDS011;35493;50.276;9.372;2023-03-01T01:43:48;9.25;;;4.97;;
49412;SDS011;35493;50.276;9.372;2023-03-01T01:46:35;10.85;;;5.32;;
49412;SDS011;35493;50.276;9.372;2023-03-01T01:49:09;11.65;;;5.50;;
49412;SDS011;35493;50.276;9.372;2023-03-01T01:51:45;9.75;;;4.78;;
49412;SDS011;35493;50.276;9.372;2023-03-01T01:54:16;8.52;;;5.07;;
49412;SDS011;35493;50.276;9.372;2023-03-01T01:56:47;10.70;;;4.93;;
49412;SDS011;35493;50.276;9.372;2023-03-01T01:59:18;11.38;;;5.60;;
49412;SDS011;35493;50.276;9.372;2023-03-01T02:01:49;11.90;;;5.50;;
49412;SDS011;35493;50.276;9.372;2023-03-01T02:04:16;10.30;;;5.65;;
49412;SDS011;35493;50.276;9.372;2023-03-01T02:06:46;10.25;;;5.65;;
49412;SDS011;35493;50.276;9.372;2023-03-01T02:09:16;10.23;;;5.45;;
49412;SDS011;35493;50.276;9.372;2023-03-01T02:11:47;10.03;;;4.97;;
49412;SDS011;35493;50.276;9.372;2023-03-01T02:14:14;10.27;;;5.43;;
49412;SDS011;35493;50.276;9.372;2023-03-01T02:16:43;10.45;;;5.38;;
49412;SDS011;35493;50.276;9.372;2023-03-01T02:19:13;8.10;;;5.32;;
49412;SDS011;35493;50.276;9.372;2023-03-01T02:21:55;10.20;;;4.97;;
49412;SDS011;35493;50.276;9.372;2023-03-01T02:24:31;10.85;;;5.40;;
49412;SDS011;35493;50.276;9.372;2023-03-01T02:27:02;9.82;;;5.07;;
49412;SDS011;35493;50.276;9.372;2023-03-01T02:29:31;11.68;;;5.50;;
49412;SDS011;35493;50.276;9.372;2023-03-01T02:31:59;7.93;;;5.30;;
49412;SDS011;35493;50.276;9.372;2023-03-01T02:34:27;13.65;;;5.07;;
49412;SDS011;35493;50.276;9.372;2023-03-01T02:36:56;59.70;;;16.13;;
49412;SDS011;35493;50.276;9.372;2023-03-01T02:39:28;92.72;;;26.88;;
49412;SDS011;35493;50.276;9.372;2023-03-01T02:44:27;67.20;;;21.80;;
49412;SDS011;35493;50.276;9.372;2023-03-01T02:46:56;75.68;;;23.48;;
49412;SDS011;35493;50.276;9.372;2023-03-01T02:49:27;76.35;;;24.05;;
49412;SDS011;35493;50.276;9.372;2023-03-01T02:52:01;88.38;;;24.15;;
49412;SDS011;35493;50.276;9.372;2023-03-01T02:54:44;74.30;;;22.45;;
49412;SDS011;35493;50.276;9.372;2023-03-01T02:57:15;85.85;;;24.20;;
49412;SDS011;35493;50.276;9.372;2023-03-01T02:59:43;82.13;;;23.50;;
49412;SDS011;35493;50.276;9.372;2023-03-01T03:02:19;78.97;;;22.48;;
49412;SDS011;35493;50.276;9.372;2023-03-01T03:05:05;70.25;;;20.95;;
49412;SDS011;35493;50.276;9.372;2023-03-01T03:07:34;72.85;;;21.45;;
49412;SDS011;35493;50.276;9.372;2023-03-01T03:10:03;69.78;;;20.90;;
49412;SDS011;35493;50.276;9.372;2023-03-01T03:12:33;68.35;;;20.33;;
49412;SDS011;35493;50.276;9.372;2023-03-01T03:15:00;66.28;;;20.55;;
49412;SDS011;35493;50.276;9.372;2023-03-01T03:17:35;67.30;;;19.92;;
49412;SDS011;35493;50.276;9.372;2023-03-01T03:20:02;51.47;;;17.20;;
49412;SDS011;35493;50.276;9.372;2023-03-01T03:22:30;58.83;;;19.88;;
49412;SDS011;35493;50.276;9.372;2023-03-01T03:24:59;50.92;;;18.00;;
49412;SDS011;35493;50.276;9.372;2023-03-01T03:27:27;45.08;;;16.35;;
49412;SDS011;35493;50.276;9.372;2023-03-01T03:29:54;44.50;;;14.63;;
49412;SDS011;35493;50.276;9.372;2023-03-01T03:32:21;41.50;;;13.77;;
49412;SDS011;35493;50.276;9.372;2023-03-01T03:34:49;37.53;;;12.80;;
49412;SDS011;35493;50.276;9.372;2023-03-01T03:37:16;43.53;;;15.10;;
49412;SDS011;35493;50.276;9.372;2023-03-01T03:39:57;33.78;;;13.10;;
49412;SDS011;35493;50.276;9.372;2023-03-01T03:42:25;35.33;;;12.55;;
49412;SDS011;35493;50.276;9.372;2023-03-01T03:44:52;39.97;;;13.60;;
49412;SDS011;35493;50.276;9.372;2023-03-01T03:47:19;44.95;;;13.38;;
49412;SDS011;35493;50.276;9.372;2023-03-01T03:49:45;35.92;;;12.70;;
49412;SDS011;35493;50.276;9.372;2023-03-01T03:52:14;24.38;;;10.93;;
49412;SDS011;35493;50.276;9.372;2023-03-01T03:54:42;29.33;;;11.88;;
49412;SDS011;35493;50.276;9.372;2023-03-01T03:57:09;34.35;;;12.02;;
49412;SDS011;35493;50.276;9.372;2023-03-01T03:59:36;28.38;;;11.43;;
49412;SDS011;35493;50.276;9.372;2023-03-01T04:02:03;28.63;;;11.45;;
49412;SDS011;35493;50.276;9.372;2023-03-01T04:04:30;26.70;;;10.10;;
49412;SDS011;35493;50.276;9.372;2023-03-01T04:06:57;23.63;;;10.65;;
49412;SDS011;35493;50.276;9.372;2023-03-01T04:09:26;24.75;;;10.27;;
49412;SDS011;35493;50.276;9.372;2023-03-01T04:11:55;22.15;;;10.43;;
49412;SDS011;35493;50.276;9.372;2023-03-01T04:14:22;21.20;;;10.13;;
49412;SDS011;35493;50.276;9.372;2023-03-01T04:16:49;20.85;;;9.85;;
49412;SDS011;35493;50.276;9.372;2023-03-01T04:19:15;18.95;;;9.60;;
49412;SDS011;35493;50.276;9.372;2023-03-01T04:21:42;21.83;;;9.63;;
49412;SDS011;35493;50.276;9.372;2023-03-01T04:24:09;18.90;;;9.93;;
49412;SDS011;35493;50.276;9.372;2023-03-01T04:26:38;17.80;;;9.15;;
49412;SDS011;35493;50.276;9.372;2023-03-01T04:29:05;25.98;;;10.30;;
49412;SDS011;35493;50.276;9.372;2023-03-01T04:31:32;22.13;;;9.95;;
49412;SDS011;35493;50.276;9.372;2023-03-01T04:33:59;24.60;;;10.00;;
49412;SDS011;35493;50.276;9.372;2023-03-01T04:36:26;22.15;;;10.75;;
49412;SDS011;35493;50.276;9.372;2023-03-01T04:38:55;22.17;;;10.18;;
49412;SDS011;35493;50.276;9.372;2023-03-01T04:41:22;20.33;;;9.85;;
49412;SDS011;35493;50.276;9.372;2023-03-01T04:43:52;23.02;;;9.75;;
49412;SDS011;35493;50.276;9.372;2023-03-01T04:46:19;18.73;;;10.10;;
49412;SDS011;35493;50.276;9.372;2023-03-01T04:48:47;18.80;;;9.30;;
49412;SDS011;35493;50.276;9.372;2023-03-01T04:51:15;16.90;;;9.80;;
49412;SDS011;35493;50.276;9.372;2023-03-01T04:53:42;19.92;;;9.35;;
49412;SDS011;35493;50.276;9.372;2023-03-01T04:56:10;20.70;;;10.65;;
49412;SDS011;35493;50.276;9.372;2023-03-01T04:58:38;19.52;;;9.82;;
49412;SDS011;35493;50.276;9.372;2023-03-01T05:01:09;16.58;;;9.38;;
49412;SDS011;35493;50.276;9.372;2023-03-01T05:03:40;18.02;;;9.75;;
49412;SDS011;35493;50.276;9.372;2023-03-01T05:06:08;18.65;;;10.05;;
49412;SDS011;35493;50.276;9.372;2023-03-01T05:08:36;19.23;;;9.52;;
49412;SDS011;35493;50.276;9.372;2023-03-01T05:11:03;15.55;;;9.30;;
49412;SDS011;35493;50.276;9.372;2023-03-01T05:13:30;18.80;;;9.75;;
49412;SDS011;35493;50.276;9.372;2023-03-01T05:15:59;17.63;;;8.85;;
49412;SDS011;35493;50.276;9.372;2023-03-01T05:18:32;20.15;;;9.65;;
49412;SDS011;35493;50.276;9.372;2023-03-01T05:21:01;16.55;;;8.48;;
49412;SDS011;35493;50.276;9.372;2023-03-01T05:23:30;20.33;;;9.90;;
49412;SDS011;35493;50.276;9.372;2023-03-01T05:25:58;19.02;;;8.68;;
49412;SDS011;35493;50.276;9.372;2023-03-01T05:28:25;18.92;;;9.45;;
49412;SDS011;35493;50.276;9.372;2023-03-01T05:30:53;18.55;;;9.55;;
49412;SDS011;35493;50.276;9.372;2023-03-01T05:33:20;20.40;;;10.20;;
49412;SDS011;35493;50.276;9.372;2023-03-01T05:35:50;16.73;;;9.82;;
49412;SDS011;35493;50.276;9.372;2023-03-01T05:38:18;19.48;;;9.70;;
49412;SDS011;35493;50.276;9.372;2023-03-01T05:40:46;16.02;;;9.05;;
49412;SDS011;35493;50.276;9.372;2023-03-01T05:43:15;16.50;;;9.68;;
49412;SDS011;35493;50.276;9.372;2023-03-01T05:45:43;16.63;;;9.48;;
49412;SDS011;35493;50.276;9.372;2023-03-01T05:48:10;17.27;;;9.07;;
49412;SDS011;35493;50.276;9.372;2023-03-01T05:50:38;19.30;;;9.13;;
49412;SDS011;35493;50.276;9.372;2023-03-01T05:53:09;17.58;;;9.30;;
49412;SDS011;35493;50.276;9.372;2023-03-01T05:58:05;16.67;;;9.07;;
49412;SDS011;35493;50.276;9.372;2023-03-01T06:00:33;18.55;;;10.05;;
49412;SDS011;35493;50.276;9.372;2023-03-01T06:03:00;17.98;;;9.80;;
49412;SDS011;35493;50.276;9.372;2023-03-01T06:05:28;18.15;;;9.93;;
49412;SDS011;35493;50.276;9.372;2023-03-01T06:07:55;18.30;;;9.45;;
49412;SDS011;35493;50.276;9.372;2023-03-01T06:10:30;17.38;;;9.20;;
49412;SDS011;35493;50.276;9.372;2023-03-01T06:12:57;17.13;;;8.73;;
49412;SDS011;35493;50.276;9.372;2023-03-01T06:15:24;17.00;;;10.00;;
49412;SDS011;35493;50.276;9.372;2023-03-01T06:17:52;19.00;;;8.88;;
49412;SDS011;35493;50.276;9.372;2023-03-01T06:20:23;18.50;;;9.18;;
49412;SDS011;35493;50.276;9.372;2023-03-01T06:22:51;18.33;;;10.00;;
49412;SDS011;35493;50.276;9.372;2023-03-01T06:25:20;20.13;;;8.98;;
49412;SDS011;35493;50.276;9.372;2023-03-01T06:27:49;19.35;;;9.57;;
49412;SDS011;35493;50.276;9.372;2023-03-01T06:30:18;17.38;;;9.80;;
49412;SDS011;35493;50.276;9.372;2023-03-01T06:32:46;17.48;;;9.10;;
49412;SDS011;35493;50.276;9.372;2023-03-01T06:35:14;17.75;;;9.00;;
49412;SDS011;35493;50.276;9.372;2023-03-01T06:37:43;16.48;;;9.27;;
49412;SDS011;35493;50.276;9.372;2023-03-01T06:40:11;18.20;;;9.07;;
49412;SDS011;35493;50.276;9.372;2023-03-01T06:42:39;16.95;;;9.38;;
49412;SDS011;35493;50.276;9.372;2023-03-01T06:45:10;18.92;;;9.55;;
49412;SDS011;35493;50.276;9.372;2023-03-01T06:47:37;20.35;;;10.40;;
49412;SDS011;35493;50.276;9.372;2023-03-01T06:50:04;20.20;;;10.02;;
49412;SDS011;35493;50.276;9.372;2023-03-01T06:52:35;19.95;;;9.43;;
49412;SDS011;35493;50.276;9.372;2023-03-01T06:55:03;18.30;;;9.73;;
49412;SDS011;35493;50.276;9.372;2023-03-01T06:57:31;17.98;;;9.80;;
49412;SDS011;35493;50.276;9.372;2023-03-01T06:59:57;16.95;;;9.55;;
49412;SDS011;35493;50.276;9.372;2023-03-01T07:02:26;20.40;;;10.65;;
49412;SDS011;35493;50.276;9.372;2023-03-01T07:04:53;17.52;;;9.60;;
49412;SDS011;35493;50.276;9.372;2023-03-01T07:07:20;17.17;;;8.88;;
49412;SDS011;35493;50.276;9.372;2023-03-01T07:09:48;18.60;;;9.05;;
49412;SDS011;35493;50.276;9.372;2023-03-01T07:12:18;17.00;;;9.50;;
49412;SDS011;35493;50.276;9.372;2023-03-01T07:14:45;19.95;;;10.02;;
49412;SDS011;35493;50.276;9.372;2023-03-01T07:17:14;20.45;;;9.38;;
49412;SDS011;35493;50.276;9.372;2023-03-01T07:19:42;16.55;;;8.75;;
49412;SDS011;35493;50.276;9.372;2023-03-01T07:22:10;17.52;;;9.02;;
49412;SDS011;35493;50.276;9.372;2023-03-01T07:24:36;19.20;;;9.93;;
49412;SDS011;35493;50.276;9.372;2023-03-01T07:27:03;19.90;;;9.95;;
49412;SDS011;35493;50.276;9.372;2023-03-01T07:29:30;18.80;;;8.55;;
49412;SDS011;35493;50.276;9.372;2023-03-01T07:31:57;16.00;;;9.20;;
49412;SDS011;35493;50.276;9.372;2023-03-01T07:34:24;17.95;;;9.10;;
49412;SDS011;35493;50.276;9.372;2023-03-01T07:36:52;17.88;;;10.45;;
49412;SDS011;35493;50.276;9.372;2023-03-01T07:39:20;16.90;;;9.07;;
49412;SDS011;35493;50.276;9.372;2023-03-01T07:41:50;19.15;;;9.93;;
49412;SDS011;35493;50.276;9.372;2023-03-01T07:44:20;14.88;;;9.10;;
49412;SDS011;35493;50.276;9.372;2023-03-01T07:46:47;20.58;;;10.38;;
49412;SDS011;35493;50.276;9.372;2023-03-01T07:49:14;17.70;;;8.75;;
49412;SDS011;35493;50.276;9.372;2023-03-01T07:51:42;17.42;;;9.32;;
49412;SDS011;35493;50.276;9.372;2023-03-01T07:54:10;16.98;;;8.70;;
49412;SDS011;35493;50.276;9.372;2023-03-01T07:56:37;15.77;;;9.57;;
49412;SDS011;35493;50.276;9.372;2023-03-01T07:59:05;17.95;;;9.52;;
49412;SDS011;35493;50.276;9.372;2023-03-01T08:01:32;17.88;;;9.07;;
49412;SDS011;35493;50.276;9.372;2023-03-01T08:03:59;16.30;;;10.07;;
49412;SDS011;35493;50.276;9.372;2023-03-01T08:06:28;18.30;;;9.70;;
49412;SDS011;35493;50.276;9.372;2023-03-01T08:08:55;17.13;;;9.60;;
49412;SDS011;35493;50.276;9.372;2023-03-01T08:11:24;18.60;;;9.32;;
49412;SDS011;35493;50.276;9.372;2023-03-01T08:13:53;19.33;;;9.50;;
49412;SDS011;35493;50.276;9.372;2023-03-01T08:16:20;18.30;;;9.30;;
49412;SDS011;35493;50.276;9.372;2023-03-01T08:18:47;17.58;;;10.00;;
49412;SDS011;35493;50.276;9.372;2023-03-01T08:21:15;17.88;;;9.82;;
49412;SDS011;35493;50.276;9.372;2023-03-01T08:23:43;17.20;;;9.23;;
49412;SDS011;35493;50.276;9.372;2023-03-01T08:26:11;18.98;;;9.15;;
49412;SDS011;35493;50.276;9.372;2023-03-01T08:28:43;17.85;;;9.43;;
49412;SDS011;35493;50.276;9.372;2023-03-01T08:31:16;17.40;;;9.63;;
49412;SDS011;35493;50.276;9.372;2023-03-01T08:33:44;18.63;;;9.95;;
49412;SDS011;35493;50.276;9.372;2023-03-01T08:36:15;16.75;;;10.20;;
49412;SDS011;35493;50.276;9.372;2023-03-01T08:38:43;17.00;;;9.63;;
49412;SDS011;35493;50.276;9.372;2023-03-01T08:41:12;16.77;;;10.55;;
49412;SDS011;35493;50.276;9.372;2023-03-01T08:43:39;18.25;;;10.02;;
49412;SDS011;35493;50.276;9.372;2023-03-01T08:46:07;20.25;;;9.90;;
49412;SDS011;35493;50.276;9.372;2023-03-01T08:48:35;19.02;;;10.10;;
49412;SDS011;35493;50.276;9.372;2023-03-01T08:51:08;16.92;;;9.48;;
49412;SDS011;35493;50.276;9.372;2023-03-01T08:53:37;18.63;;;9.73;;
49412;SDS011;35493;50.276;9.372;2023-03-01T08:56:04;16.55;;;9.75;;
49412;SDS011;35493;50.276;9.372;2023-03-01T08:58:31;18.48;;;10.18;;
49412;SDS011;35493;50.276;9.372;2023-03-01T09:01:00;17.85;;;9.93;;
49412;SDS011;35493;50.276;9.372;2023-03-01T09:03:33;20.23;;;10.80;;
49412;SDS011;35493;50.276;9.372;2023-03-01T09:06:00;17.33;;;10.80;;
49412;SDS011;35493;50.276;9.372;2023-03-01T09:08:28;21.73;;;11.15;;
49412;SDS011;35493;50.276;9.372;2023-03-01T09:10:56;19.45;;;10.68;;
49412;SDS011;35493;50.276;9.372;2023-03-01T09:13:22;19.48;;;10.77;;
49412;SDS011;35493;50.276;9.372;2023-03-01T09:15:50;16.40;;;9.27;;
49412;SDS011;35493;50.276;9.372;2023-03-01T09:18:17;18.25;;;9.38;;
49412;SDS011;35493;50.276;9.372;2023-03-01T09:20:45;17.80;;;10.32;;
49412;SDS011;35493;50.276;9.372;2023-03-01T09:23:12;19.42;;;11.15;;
49412;SDS011;35493;50.276;9.372;2023-03-01T09:25:39;16.90;;;10.48;;
49412;SDS011;35493;50.276;9.372;2023-03-01T09:28:05;18.40;;;9.98;;
49412;SDS011;35493;50.276;9.372;2023-03-01T09:30:32;17.67;;;9.57;;
49412;SDS011;35493;50.276;9.372;2023-03-01T09:32:59;17.35;;;10.60;;
49412;SDS011;35493;50.276;9.372;2023-03-01T09:35:27;16.52;;;10.13;;
49412;SDS011;35493;50.276;9.372;2023-03-01T09:37:55;17.52;;;10.68;;
49412;SDS011;35493;50.276;9.372;2023-03-01T09:40:25;18.98;;;10.60;;
49412;SDS011;35493;50.276;9.372;2023-03-01T09:42:54;16.73;;;9.73;;
49412;SDS011;35493;50.276;9.372;2023-03-01T09:45:28;17.55;;;10.13;;
49412;SDS011;35493;50.276;9.372;2023-03-01T09:47:59;17.08;;;10.15;;
49412;SDS011;35493;50.276;9.372;2023-03-01T09:50:28;19.45;;;11.27;;
49412;SDS011;35493;50.276;9.372;2023-03-01T09:53:02;16.33;;;10.20;;
49412;SDS011;35493;50.276;9.372;2023-03-01T09:55:33;18.90;;;10.50;;
49412;SDS011;35493;50.276;9.372;2023-03-01T09:58:06;19.13;;;9.77;;
49412;SDS011;35493;50.276;9.372;2023-03-01T10:00:52;17.00;;;10.43;;
49412;SDS011;35493;50.276;9.372;2023-03-01T10:03:24;18.27;;;9.98;;
49412;SDS011;35493;50.276;9.372;2023-03-01T10:05:57;16.75;;;10.00;;
49412;SDS011;35493;50.276;9.372;2023-03-01T10:08:38;14.55;;;9.63;;
49412;SDS011;35493;50.276;9.372;2023-03-01T10:11:19;16.73;;;9.68;;
49412;SDS011;35493;50.276;9.372;2023-03-01T10:13:48;15.68;;;9.32;;
49412;SDS011;35493;50.276;9.372;2023-03-01T10:16:21;14.57;;;8.77;;
49412;SDS011;35493;50.276;9.372;2023-03-01T10:18:54;13.73;;;8.45;;
49412;SDS011;35493;50.276;9.372;2023-03-01T10:21:30;18.23;;;9.70;;
49412;SDS011;35493;50.276;9.372;2023-03-01T10:24:08;14.70;;;9.40;;
49412;SDS011;35493;50.276;9.372;2023-03-01T10:26:40;19.77;;;9.02;;
49412;SDS011;35493;50.276;9.372;2023-03-01T10:29:17;17.80;;;9.32;;
49412;SDS011;35493;50.276;9.372;2023-03-01T10:31:49;17.92;;;9.20;;
49412;SDS011;35493;50.276;9.372;2023-03-01T10:34:18;16.10;;;8.75;;
49412;SDS011;35493;50.276;9.372;2023-03-01T10:36:49;15.45;;;8.57;;
49412;SDS011;35493;50.276;9.372;2023-03-01T10:39:19;14.73;;;8.48;;
49412;SDS011;35493;50.276;9.372;2023-03-01T10:41:58;13.25;;;8.13;;
49412;SDS011;35493;50.276;9.372;2023-03-01T10:44:35;17.15;;;8.75;;
49412;SDS011;35493;50.276;9.372;2023-03-01T10:47:20;14.43;;;8.23;;
49412;SDS011;35493;50.276;9.372;2023-03-01T10:49:58;14.98;;;8.35;;
49412;SDS011;35493;50.276;9.372;2023-03-01T10:52:32;14.18;;;8.48;;
49412;SDS011;35493;50.276;9.372;2023-03-01T10:55:03;15.25;;;8.65;;
49412;SDS011;35493;50.276;9.372;2023-03-01T10:57:44;15.25;;;8.63;;
49412;SDS011;35493;50.276;9.372;2023-03-01T11:03:08;12.52;;;7.38;;
49412;SDS011;35493;50.276;9.372;2023-03-01T11:05:49;16.27;;;8.60;;
49412;SDS011;35493;50.276;9.372;2023-03-01T11:08:28;13.95;;;8.02;;
49412;SDS011;35493;50.276;9.372;2023-03-01T11:11:06;13.63;;;7.72;;
49412;SDS011;35493;50.276;9.372;2023-03-01T11:13:50;12.80;;;7.65;;
49412;SDS011;35493;50.276;9.372;2023-03-01T11:16:24;13.13;;;7.82;;
49412;SDS011;35493;50.276;9.372;2023-03-01T11:19:16;12.80;;;7.55;;
49412;SDS011;35493;50.276;9.372;2023-03-01T11:21:52;12.80;;;7.80;;
49412;SDS011;35493;50.276;9.372;2023-03-01T11:24:23;14.05;;;7.28;;
49412;SDS011;35493;50.276;9.372;2023-03-01T11:26:59;11.68;;;7.30;;
49412;SDS011;35493;50.276;9.372;2023-03-01T11:29:31;10.80;;;6.72;;
49412;SDS011;35493;50.276;9.372;2023-03-01T11:32:04;11.88;;;7.65;;
49412;SDS011;35493;50.276;9.372;2023-03-01T11:34:36;13.38;;;7.15;;
49412;SDS011;35493;50.276;9.372;2023-03-01T11:37:12;10.38;;;6.50;;
49412;SDS011;35493;50.276;9.372;2023-03-01T11:39:52;11.02;;;6.93;;
49412;SDS011;35493;50.276;9.372;2023-03-01T11:42:27;10.25;;;6.22;;
49412;SDS011;35493;50.276;9.372;2023-03-01T11:45:06;10.95;;;6.78;;
49412;SDS011;35493;50.276;9.372;2023-03-01T11:47:43;12.35;;;6.43;;
49412;SDS011;35493;50.276;9.372;2023-03-01T11:50:29;11.23;;;6.20;;
49412;SDS011;35493;50.276;9.372;2023-03-01T11:53:04;11.15;;;6.63;;
49412;SDS011;35493;50.276;9.372;2023-03-01T11:58:34;11.38;;;6.40;;
49412;SDS011;35493;50.276;9.372;2023-03-01T12:01:18;12.80;;;6.80;;
49412;SDS011;35493;50.276;9.372;2023-03-01T12:04:04;9.70;;;5.97;;
49412;SDS011;35493;50.276;9.372;2023-03-01T12:06:55;13.88;;;6.68;;
49412;SDS011;35493;50.276;9.372;2023-03-01T12:12:25;10.98;;;6.90;;
49412;SDS011;35493;50.276;9.372;2023-03-01T12:15:02;9.68;;;6.45;;
49412;SDS011;35493;50.276;9.372;2023-03-01T12:17:50;10.70;;;6.13;;
49412;SDS011;35493;50.276;9.372;2023-03-01T12:20:34;10.93;;;6.30;;
49412;SDS011;35493;50.276;9.372;2023-03-01T12:23:16;10.98;;;6.78;;
49412;SDS011;35493;50.276;9.372;2023-03-01T12:26:01;12.68;;;6.38;;
49412;SDS011;35493;50.276;9.372;2023-03-01T12:28:44;10.93;;;6.82;;
49412;SDS011;35493;50.276;9.372;2023-03-01T12:34:22;9.77;;;6.45;;
49412;SDS011;35493;50.276;9.372;2023-03-01T12:37:03;12.75;;;6.90;;
49412;SDS011;35493;50.276;9.372;2023-03-01T12:39:45;9.82;;;6.25;;
49412;SDS011;35493;50.276;9.372;2023-03-01T12:42:26;10.30;;;6.55;;
49412;SDS011;35493;50.276;9.372;2023-03-01T12:45:02;9.57;;;6.13;;
49412;SDS011;35493;50.276;9.372;2023-03-01T12:47:49;11.38;;;6.45;;
49412;SDS011;35493;50.276;9.372;2023-03-01T12:50:28;10.65;;;6.57;;
49412;SDS011;35493;50.276;9.372;2023-03-01T12:53:02;11.38;;;6.53;;
49412;SDS011;35493;50.276;9.372;2023-03-01T12:55:29;15.27;;;7.70;;
49412;SDS011;35493;50.276;9.372;2023-03-01T13:00:31;10.60;;;6.68;;
49412;SDS011;35493;50.276;9.372;2023-03-01T13:03:09;12.73;;;7.65;;
49412;SDS011;35493;50.276;9.372;2023-03-01T13:05:49;15.57;;;7.88;;
49412;SDS011;35493;50.276;9.372;2023-03-01T13:08:29;13.68;;;7.65;;
49412;SDS011;35493;50.276;9.372;2023-03-01T13:11:02;12.52;;;7.65;;
49412;SDS011;35493;50.276;9.372;2023-03-01T13:13:31;11.50;;;6.47;;
49412;SDS011;35493;50.276;9.372;2023-03-01T13:16:00;13.82;;;7.30;;
49412;SDS011;35493;50.276;9.372;2023-03-01T13:18:49;10.35;;;6.47;;
49412;SDS011;35493;50.276;9.372;2023-03-01T13:21:36;12.25;;;7.03;;
49412;SDS011;35493;50.276;9.372;2023-03-01T13:24:03;11.15;;;6.75;;
49412;SDS011;35493;50.276;9.372;2023-03-01T13:29:54;13.02;;;7.18;;
49412;SDS011;35493;50.276;9.372;2023-03-01T13:32:25;12.07;;;6.90;;
49412;SDS011;35493;50.276;9.372;2023-03-01T13:34:56;9.82;;;6.05;;
49412;SDS011;35493;50.276;9.372;2023-03-01T13:37:26;11.50;;;6.60;;
49412;SDS011;35493;50.276;9.372;2023-03-01T13:42:32;10.40;;;6.93;;
49412;SDS011;35493;50.276;9.372;2023-03-01T13:45:02;11.50;;;7.30;;
49412;SDS011;35493;50.276;9.372;2023-03-01T13:47:33;11.10;;;6.50;;
49412;SDS011;35493;50.276;9.372;2023-03-01T13:50:14;13.02;;;7.35;;
49412;SDS011;35493;50.276;9.372;2023-03-01T13:52:44;12.10;;;7.63;;
49412;SDS011;35493;50.276;9.372;2023-03-01T13:55:17;13.65;;;7.15;;
49412;SDS011;35493;50.276;9.372;2023-03-01T13:57:48;11.73;;;7.03;;
49412;SDS011;35493;50.276;9.372;2023-03-01T14:00:29;11.68;;;7.00;;
49412;SDS011;35493;50.276;9.372;2023-03-01T14:03:02;12.50;;;6.70;;
49412;SDS011;35493;50.276;9.372;2023-03-01T14:05:32;10.63;;;6.43;;
49412;SDS011;35493;50.276;9.372;2023-03-01T14:08:01;11.45;;;6.55;;
49412;SDS011;35493;50.276;9.372;2023-03-01T14:10:30;11.13;;;6.40;;
49412;SDS011;35493;50.276;9.372;2023-03-01T14:13:05;11.85;;;6.75;;
49412;SDS011;35493;50.276;9.372;2023-03-01T14:15:46;13.95;;;7.07;;
49412;SDS011;35493;50.276;9.372;2023-03-01T14:18:31;11.65;;;6.78;;
49412;SDS011;35493;50.276;9.372;2023-03-01T14:21:07;13.57;;;6.82;;
49412;SDS011;35493;50.276;9.372;2023-03-01T14:23:35;12.05;;;6.88;;
49412;SDS011;35493;50.276;9.372;2023-03-01T14:26:07;12.05;;;6.65;;
49412;SDS011;35493;50.276;9.372;2023-03-01T14:28:37;11.10;;;6.75;;
49412;SDS011;35493;50.276;9.372;2023-03-01T14:33:59;13.70;;;6.97;;
49412;SDS011;35493;50.276;9.372;2023-03-01T14:36:29;11.38;;;7.00;;
49412;SDS011;35493;50.276;9.372;2023-03-01T14:38:57;10.90;;;6.60;;
49412;SDS011;35493;50.276;9.372;2023-03-01T14:41:30;11.60;;;6.70;;
49412;SDS011;35493;50.276;9.372;2023-03-01T14:44:00;12.75;;;7.38;;
49412;SDS011;35493;50.276;9.372;2023-03-01T14:46:29;13.80;;;7.15;;
49412;SDS011;35493;50.276;9.372;2023-03-01T14:49:01;14.23;;;7.85;;
49412;SDS011;35493;50.276;9.372;2023-03-01T14:51:31;13.13;;;7.32;;
49412;SDS011;35493;50.276;9.372;2023-03-01T14:54:02;12.23;;;7.43;;
49412;SDS011;35493;50.276;9.372;2023-03-01T14:56:37;13.77;;;7.30;;
49412;SDS011;35493;50.276;9.372;2023-03-01T14:59:10;14.60;;;7.80;;
49412;SDS011;35493;50.276;9.372;2023-03-01T15:01:39;13.55;;;8.48;;
49412;SDS011;35493;50.276;9.372;2023-03-01T15:04:09;13.77;;;9.25;;
49412;SDS011;35493;50.276;9.372;2023-03-01T15:06:39;15.15;;;8.32;;
49412;SDS011;35493;50.276;9.372;2023-03-01T15:09:11;13.48;;;8.68;;
49412;SDS011;35493;50.276;9.372;2023-03-01T15:11:40;12.05;;;7.97;;
49412;SDS011;35493;50.276;9.372;2023-03-01T15:14:27;13.38;;;8.57;;
49412;SDS011;35493;50.276;9.372;2023-03-01T15:17:05;14.00;;;8.77;;
49412;SDS011;35493;50.276;9.372;2023-03-01T15:19:45;13.63;;;7.95;;
49412;SDS011;35493;50.276;9.372;2023-03-01T15:22:15;13.50;;;8.45;;